createdAt,value
2022-11-23T00:00:19.000Z,0.7
2022-11-23T00:01:35.000Z,0.6
2022-11-23T00:02:52.000Z,0.7
2022-11-23T00:04:08.000Z,0.7
2022-11-23T00:05:24.000Z,0.9
2022-11-23T00:06:39.000Z,0.7
2022-11-23T00:07:56.000Z,0.6
2022-11-23T00:09:12.000Z,0.9
2022-11-23T00:10:28.000Z,0.7
2022-11-23T00:11:44.000Z,0.7
2022-11-23T00:13:01.000Z,0.7
2022-11-23T00:14:17.000Z,0.8
2022-11-23T00:15:33.000Z,0.8
2022-11-23T00:16:49.000Z,0.8
2022-11-23T00:18:05.000Z,0.7
2022-11-23T00:19:22.000Z,0.7
2022-11-23T00:20:38.000Z,0.8
2022-11-23T00:21:54.000Z,0.7
2022-11-23T00:23:09.000Z,0.8
2022-11-23T00:24:26.000Z,0.7
2022-11-23T00:25:42.000Z,0.7
2022-11-23T00:26:58.000Z,0.8
2022-11-23T00:28:14.000Z,0.8
2022-11-23T00:29:31.000Z,0.8
2022-11-23T00:30:47.000Z,0.6
2022-11-23T00:32:03.000Z,0.6
2022-11-23T00:33:19.000Z,0.8
2022-11-23T00:34:36.000Z,0.6
2022-11-23T00:35:52.000Z,0.9
2022-11-23T00:37:08.000Z,0.8
2022-11-23T00:38:24.000Z,0.9
2022-11-23T00:39:40.000Z,0.8
2022-11-23T00:40:56.000Z,0.8
2022-11-23T00:42:12.000Z,0.8
2022-11-23T00:43:28.000Z,1
2022-11-23T00:44:44.000Z,0.7
2022-11-23T00:46:01.000Z,0.8
2022-11-23T00:47:17.000Z,0.7
2022-11-23T00:48:33.000Z,1
2022-11-23T00:49:49.000Z,1
2022-11-23T00:51:06.000Z,0.7
2022-11-23T00:52:22.000Z,0.8
2022-11-23T00:53:38.000Z,0.9
2022-11-23T00:54:54.000Z,0.8
2022-11-23T00:56:10.000Z,1
2022-11-23T00:57:26.000Z,1
2022-11-23T00:58:42.000Z,0.9
2022-11-23T00:59:58.000Z,0.9
2022-11-23T01:01:14.000Z,0.9
2022-11-23T01:03:47.000Z,0.8
2022-11-23T01:05:03.000Z,0.9
2022-11-23T01:06:19.000Z,0.7
2022-11-23T01:07:36.000Z,0.9
2022-11-23T01:08:52.000Z,0.8
2022-11-23T01:10:08.000Z,0.9
2022-11-23T01:11:24.000Z,0.9
2022-11-23T01:12:41.000Z,0.8
2022-11-23T01:13:56.000Z,0.9
2022-11-23T01:15:12.000Z,0.9
2022-11-23T01:16:28.000Z,0.8
2022-11-23T01:17:44.000Z,0.8
2022-11-23T01:19:01.000Z,0.8
2022-11-23T01:20:17.000Z,1
2022-11-23T01:21:33.000Z,0.8
2022-11-23T01:22:49.000Z,1
2022-11-23T01:24:06.000Z,0.8
2022-11-23T01:25:22.000Z,0.9
2022-11-23T01:26:38.000Z,1
2022-11-23T01:27:54.000Z,0.8
2022-11-23T01:29:11.000Z,0.8
2022-11-23T01:30:26.000Z,0.7
2022-11-23T01:31:42.000Z,0.9
2022-11-23T01:32:58.000Z,1
2022-11-23T01:34:15.000Z,0.9
2022-11-23T01:35:31.000Z,0.7
2022-11-23T01:36:47.000Z,0.8
2022-11-23T01:38:03.000Z,1
2022-11-23T01:39:19.000Z,0.7
2022-11-23T01:40:36.000Z,0.8
2022-11-23T01:41:52.000Z,0.9
2022-11-23T01:43:08.000Z,0.9
2022-11-23T01:44:24.000Z,0.8
2022-11-23T01:45:41.000Z,0.8
2022-11-23T01:46:56.000Z,0.8
2022-11-23T01:48:12.000Z,1
2022-11-23T01:49:28.000Z,0.7
2022-11-23T01:50:45.000Z,0.8
2022-11-23T01:52:01.000Z,0.9
2022-11-23T01:53:17.000Z,0.9
2022-11-23T01:54:33.000Z,0.9
2022-11-23T01:55:50.000Z,0.8
2022-11-23T01:57:06.000Z,0.9
2022-11-23T01:58:22.000Z,0.7
2022-11-23T01:59:38.000Z,0.9
2022-11-23T02:00:54.000Z,1
2022-11-23T02:02:11.000Z,0.9
2022-11-23T02:03:26.000Z,0.9
2022-11-23T02:04:42.000Z,1
2022-11-23T02:05:58.000Z,0.8
2022-11-23T02:07:15.000Z,1
2022-11-23T02:08:31.000Z,1
2022-11-23T02:09:47.000Z,0.9
2022-11-23T02:11:03.000Z,1.1
2022-11-23T02:12:20.000Z,0.9
2022-11-23T02:13:36.000Z,0.9
2022-11-23T02:14:52.000Z,0.9
2022-11-23T02:16:08.000Z,1
2022-11-23T02:18:41.000Z,1
2022-11-23T02:19:56.000Z,1.1
2022-11-23T02:21:12.000Z,1.1
2022-11-23T02:22:28.000Z,0.8
2022-11-23T02:23:45.000Z,0.9
2022-11-23T02:25:01.000Z,1.2
2022-11-23T02:26:17.000Z,1
2022-11-23T02:27:33.000Z,0.9
2022-11-23T02:28:50.000Z,1.1
2022-11-23T02:30:06.000Z,0.8
2022-11-23T02:31:22.000Z,1
2022-11-23T02:32:38.000Z,0.9
2022-11-23T02:33:55.000Z,0.9
2022-11-23T02:35:11.000Z,1.1
2022-11-23T02:36:26.000Z,0.9
2022-11-23T02:37:42.000Z,0.8
2022-11-23T02:38:59.000Z,1.1
2022-11-23T02:40:15.000Z,0.9
2022-11-23T02:41:30.000Z,0.9
2022-11-23T02:42:46.000Z,1.1
2022-11-23T02:44:03.000Z,1
2022-11-23T02:45:19.000Z,1.1
2022-11-23T02:46:35.000Z,0.8
2022-11-23T02:47:51.000Z,0.9
2022-11-23T02:49:07.000Z,1.1
2022-11-23T02:50:24.000Z,0.9
2022-11-23T02:51:40.000Z,1
2022-11-23T02:52:56.000Z,1
2022-11-23T02:54:12.000Z,0.9
2022-11-23T02:56:45.000Z,1.4
2022-11-23T02:58:00.000Z,1
2022-11-23T02:59:16.000Z,1
2022-11-23T03:00:33.000Z,1
2022-11-23T03:01:49.000Z,1.2
2022-11-23T03:03:05.000Z,1.2
2022-11-23T03:04:21.000Z,1
2022-11-23T03:05:38.000Z,0.9
2022-11-23T03:06:54.000Z,1.1
2022-11-23T03:08:10.000Z,1.1
2022-11-23T03:09:26.000Z,1.2
2022-11-23T03:10:42.000Z,1
2022-11-23T03:11:59.000Z,1.1
2022-11-23T03:13:15.000Z,1
2022-11-23T03:14:30.000Z,1.2
2022-11-23T03:15:46.000Z,1.1
2022-11-23T03:17:03.000Z,1
2022-11-23T03:18:19.000Z,1.1
2022-11-23T03:19:35.000Z,1.1
2022-11-23T03:20:51.000Z,0.9
2022-11-23T03:22:08.000Z,1
2022-11-23T03:23:24.000Z,0.9
2022-11-23T03:24:40.000Z,1.2
2022-11-23T03:25:56.000Z,0.9
2022-11-23T03:27:12.000Z,1
2022-11-23T03:28:29.000Z,1
2022-11-23T03:29:45.000Z,1
2022-11-23T03:31:00.000Z,1.1
2022-11-23T03:32:16.000Z,1.1
2022-11-23T03:33:33.000Z,1
2022-11-23T03:34:49.000Z,1
2022-11-23T03:36:05.000Z,0.9
2022-11-23T03:37:21.000Z,1
2022-11-23T03:38:38.000Z,1.3
2022-11-23T03:39:54.000Z,1.1
2022-11-23T03:41:10.000Z,1
2022-11-23T03:42:26.000Z,1
2022-11-23T03:43:43.000Z,1
2022-11-23T03:44:59.000Z,1.2
2022-11-23T03:46:15.000Z,0.9
2022-11-23T03:47:31.000Z,1.1
2022-11-23T03:48:46.000Z,1.2
2022-11-23T03:50:03.000Z,1.3
2022-11-23T03:51:19.000Z,0.9
2022-11-23T03:52:35.000Z,1
2022-11-23T03:53:51.000Z,1
2022-11-23T03:55:08.000Z,1
2022-11-23T03:56:24.000Z,1
2022-11-23T03:57:40.000Z,0.8
2022-11-23T03:58:56.000Z,1
2022-11-23T04:00:13.000Z,1.2
2022-11-23T04:01:29.000Z,1.1
2022-11-23T04:02:45.000Z,0.9
2022-11-23T04:04:01.000Z,1.1
2022-11-23T04:05:17.000Z,1
2022-11-23T04:06:33.000Z,1.3
2022-11-23T04:07:49.000Z,1.1
2022-11-23T04:09:05.000Z,1
2022-11-23T04:10:21.000Z,0.9
2022-11-23T04:11:38.000Z,1
2022-11-23T04:12:54.000Z,1
2022-11-23T04:14:10.000Z,1
2022-11-23T04:15:26.000Z,1
2022-11-23T04:16:43.000Z,0.9
2022-11-23T04:17:59.000Z,1.1
2022-11-23T04:19:15.000Z,1
2022-11-23T04:20:31.000Z,1.1
2022-11-23T04:21:47.000Z,1
2022-11-23T04:23:03.000Z,0.9
2022-11-23T04:24:19.000Z,1
2022-11-23T04:25:35.000Z,1.1
2022-11-23T04:26:52.000Z,1
2022-11-23T04:28:08.000Z,1.1
2022-11-23T04:29:24.000Z,1.2
2022-11-23T04:30:40.000Z,1.2
2022-11-23T04:31:56.000Z,1
2022-11-23T04:33:13.000Z,1.2
2022-11-23T04:34:29.000Z,0.9
2022-11-23T04:35:45.000Z,0.8
2022-11-23T04:37:01.000Z,1.3
2022-11-23T04:38:18.000Z,1
2022-11-23T04:39:33.000Z,1.1
2022-11-23T04:40:49.000Z,1.2
2022-11-23T04:42:05.000Z,1
2022-11-23T04:43:22.000Z,1
2022-11-23T04:44:38.000Z,1.3
2022-11-23T04:45:54.000Z,1.2
2022-11-23T04:47:10.000Z,1.1
2022-11-23T04:48:27.000Z,1.2
2022-11-23T04:49:43.000Z,1.1
2022-11-23T04:50:59.000Z,1.1
2022-11-23T04:53:31.000Z,1.2
2022-11-23T04:54:48.000Z,1.1
2022-11-23T04:56:03.000Z,1.3
2022-11-23T04:57:19.000Z,1.1
2022-11-23T04:58:35.000Z,1.2
2022-11-23T04:59:52.000Z,1.3
2022-11-23T05:01:08.000Z,1.5
2022-11-23T05:02:24.000Z,1.4
2022-11-23T05:03:40.000Z,1.3
2022-11-23T05:04:57.000Z,1.6
2022-11-23T05:06:13.000Z,1
2022-11-23T05:07:29.000Z,1.6
2022-11-23T05:08:45.000Z,1.4
2022-11-23T05:10:02.000Z,1.2
2022-11-23T05:11:18.000Z,1.4
2022-11-23T05:12:33.000Z,1.3
2022-11-23T05:13:49.000Z,1.5
2022-11-23T05:15:05.000Z,1.2
2022-11-23T05:16:22.000Z,1.6
2022-11-23T05:17:38.000Z,1.5
2022-11-23T05:18:54.000Z,1.8
2022-11-23T05:20:10.000Z,1.5
2022-11-23T05:21:27.000Z,1.5
2022-11-23T05:22:43.000Z,1.7
2022-11-23T05:23:59.000Z,1.8
2022-11-23T05:25:15.000Z,1.7
2022-11-23T05:26:32.000Z,1.7
2022-11-23T05:27:48.000Z,1.6
2022-11-23T05:29:04.000Z,1.5
2022-11-23T05:30:19.000Z,1.6
2022-11-23T05:31:36.000Z,1.7
2022-11-23T05:32:52.000Z,1.9
2022-11-23T05:34:08.000Z,1.9
2022-11-23T05:35:24.000Z,1.9
2022-11-23T05:36:40.000Z,1.8
2022-11-23T05:37:57.000Z,1.8
2022-11-23T05:39:13.000Z,2
2022-11-23T05:40:29.000Z,2.2
2022-11-23T05:41:45.000Z,1.8
2022-11-23T05:43:02.000Z,1.9
2022-11-23T05:44:18.000Z,2.2
2022-11-23T05:45:34.000Z,2.1
2022-11-23T05:46:49.000Z,2.2
2022-11-23T05:48:06.000Z,2.4
2022-11-23T05:49:22.000Z,2.4
2022-11-23T05:50:38.000Z,2.4
2022-11-23T05:51:54.000Z,2.8
2022-11-23T05:54:27.000Z,2.9
2022-11-23T05:55:43.000Z,2.8
2022-11-23T05:56:59.000Z,2.7
2022-11-23T05:58:15.000Z,3
2022-11-23T05:59:32.000Z,3
2022-11-23T06:00:48.000Z,2.7
2022-11-23T06:02:04.000Z,2.8
2022-11-23T06:03:19.000Z,2.9
2022-11-23T06:04:36.000Z,2.5
2022-11-23T06:07:08.000Z,2.7
2022-11-23T06:08:24.000Z,2.5
2022-11-23T06:09:41.000Z,2.1
2022-11-23T06:10:57.000Z,2.4
2022-11-23T06:12:13.000Z,2.3
2022-11-23T06:13:29.000Z,2.3
2022-11-23T06:14:46.000Z,2
2022-11-23T06:16:02.000Z,2.2
2022-11-23T06:17:18.000Z,2.1
2022-11-23T06:18:34.000Z,1.9
2022-11-23T06:19:50.000Z,1.9
2022-11-23T06:21:06.000Z,2.2
2022-11-23T06:22:22.000Z,2.4
2022-11-23T06:23:38.000Z,2
2022-11-23T06:24:54.000Z,1.9
2022-11-23T06:26:11.000Z,2.1
2022-11-23T06:27:27.000Z,2.3
2022-11-23T06:28:43.000Z,2.1
2022-11-23T06:29:59.000Z,2.2
2022-11-23T06:31:16.000Z,1.9
2022-11-23T06:32:32.000Z,2
2022-11-23T06:33:48.000Z,2.1
2022-11-23T06:35:04.000Z,2.1
2022-11-23T06:36:21.000Z,2
2022-11-23T06:37:37.000Z,2.2
2022-11-23T06:38:52.000Z,2.3
2022-11-23T06:40:08.000Z,1.7
2022-11-23T06:41:24.000Z,2.6
2022-11-23T06:42:41.000Z,2.2
2022-11-23T06:43:57.000Z,2.2
2022-11-23T06:45:13.000Z,1.9
2022-11-23T06:46:29.000Z,2.2
2022-11-23T06:47:46.000Z,1.8
2022-11-23T06:49:02.000Z,1.9
2022-11-23T06:50:18.000Z,2.1
2022-11-23T06:51:34.000Z,2.1
2022-11-23T06:52:51.000Z,2
2022-11-23T06:54:07.000Z,2
2022-11-23T06:55:22.000Z,1.7
2022-11-23T06:57:54.000Z,1.7
2022-11-23T06:59:09.000Z,1.9
2022-11-23T07:00:25.000Z,2
2022-11-23T07:01:41.000Z,2
2022-11-23T07:02:58.000Z,2.3
2022-11-23T07:04:14.000Z,2.2
2022-11-23T07:05:30.000Z,2.3
2022-11-23T07:06:46.000Z,2.2
2022-11-23T07:08:02.000Z,2.3
2022-11-23T07:10:35.000Z,2.3
2022-11-23T07:11:51.000Z,2
2022-11-23T07:13:07.000Z,2.2
2022-11-23T07:14:24.000Z,2
2022-11-23T07:15:39.000Z,1.7
2022-11-23T07:16:55.000Z,1.7
2022-11-23T07:18:11.000Z,1.8
2022-11-23T07:19:28.000Z,1.9
2022-11-23T07:20:44.000Z,1.6
2022-11-23T07:23:16.000Z,1.7
2022-11-23T07:24:32.000Z,1.8
2022-11-23T07:25:47.000Z,1.5
2022-11-23T07:27:03.000Z,1.2
2022-11-23T07:28:19.000Z,1.3
2022-11-23T07:29:35.000Z,1.5
2022-11-23T07:30:52.000Z,1.4
2022-11-23T07:32:08.000Z,1.4
2022-11-23T07:33:24.000Z,1.8
2022-11-23T07:34:40.000Z,1.6
2022-11-23T07:35:57.000Z,1.4
2022-11-23T07:37:13.000Z,1.4
2022-11-23T07:38:28.000Z,1.3
2022-11-23T07:39:43.000Z,1.2
2022-11-23T07:41:00.000Z,1.3
2022-11-23T07:42:16.000Z,1.4
2022-11-23T07:43:32.000Z,1.3
2022-11-23T07:44:48.000Z,1.4
2022-11-23T07:46:05.000Z,1.3
2022-11-23T07:47:21.000Z,1.3
2022-11-23T07:48:37.000Z,1.2
2022-11-23T07:49:53.000Z,1.1
2022-11-23T07:51:10.000Z,1.1
2022-11-23T07:52:26.000Z,1.2
2022-11-23T07:53:42.000Z,1.1
2022-11-23T07:54:58.000Z,1.2
2022-11-23T07:56:13.000Z,1
2022-11-23T07:57:30.000Z,1.2
2022-11-23T07:58:46.000Z,1
2022-11-23T08:00:02.000Z,1.2
2022-11-23T08:01:18.000Z,1.3
2022-11-23T08:02:35.000Z,1.1
2022-11-23T08:03:51.000Z,1.2
2022-11-23T08:05:07.000Z,1
2022-11-23T08:06:23.000Z,1.3
2022-11-23T08:07:40.000Z,1
2022-11-23T08:08:56.000Z,0.9
2022-11-23T08:10:12.000Z,1.3
2022-11-23T08:11:28.000Z,1
2022-11-23T08:12:44.000Z,1.2
2022-11-23T08:14:00.000Z,1.1
2022-11-23T08:15:16.000Z,1.1
2022-11-23T08:16:32.000Z,1.2
2022-11-23T08:17:48.000Z,1.3
2022-11-23T08:19:05.000Z,1.3
2022-11-23T08:20:21.000Z,1.1
2022-11-23T08:21:37.000Z,1.1
2022-11-23T08:22:53.000Z,1.2
2022-11-23T08:24:10.000Z,1.1
2022-11-23T08:25:26.000Z,1.2
2022-11-23T08:26:42.000Z,1.2
2022-11-23T08:27:58.000Z,1.3
2022-11-23T08:29:14.000Z,1
2022-11-23T08:30:30.000Z,1.4
2022-11-23T08:31:46.000Z,1.5
2022-11-23T08:33:02.000Z,1.2
2022-11-23T08:34:19.000Z,1.3
2022-11-23T08:35:35.000Z,1.2
2022-11-23T08:36:51.000Z,1.1
2022-11-23T08:38:07.000Z,1.2
2022-11-23T08:39:23.000Z,1.4
2022-11-23T08:40:40.000Z,1.1
2022-11-23T08:41:56.000Z,1.3
2022-11-23T08:43:12.000Z,1.1
2022-11-23T08:44:28.000Z,1.1
2022-11-23T08:45:44.000Z,1.1
2022-11-23T08:47:00.000Z,1.4
2022-11-23T08:48:16.000Z,1.2
2022-11-23T08:49:32.000Z,1.2
2022-11-23T08:50:49.000Z,1.1
2022-11-23T08:52:05.000Z,1.1
2022-11-23T08:53:21.000Z,1.2
2022-11-23T08:54:37.000Z,1.2
2022-11-23T08:55:53.000Z,1.3
2022-11-23T08:57:10.000Z,1
2022-11-23T08:58:26.000Z,1.1
2022-11-23T08:59:42.000Z,1.1
2022-11-23T09:00:58.000Z,1.2
2022-11-23T09:02:14.000Z,1.2
2022-11-23T09:04:46.000Z,1
2022-11-23T09:06:02.000Z,1.2
2022-11-23T09:07:19.000Z,1.2
2022-11-23T09:08:35.000Z,1
2022-11-23T09:09:51.000Z,1.4
2022-11-23T09:11:07.000Z,1.2
2022-11-23T09:12:24.000Z,1
2022-11-23T09:13:40.000Z,1.3
2022-11-23T09:14:56.000Z,1
2022-11-23T09:16:12.000Z,1.1
2022-11-23T09:17:28.000Z,1.9
2022-11-23T09:18:44.000Z,1.4
2022-11-23T09:20:00.000Z,1.2
2022-11-23T09:21:16.000Z,1.8
2022-11-23T09:22:32.000Z,1.3
2022-11-23T09:23:49.000Z,1
2022-11-23T09:25:05.000Z,1.1
2022-11-23T09:26:21.000Z,1
2022-11-23T09:27:37.000Z,0.9
2022-11-23T09:28:54.000Z,1
2022-11-23T09:30:10.000Z,0.9
2022-11-23T09:31:26.000Z,0.9
2022-11-23T09:33:59.000Z,0.9
2022-11-23T09:35:14.000Z,1
2022-11-23T09:36:30.000Z,0.9
2022-11-23T09:37:46.000Z,0.8
2022-11-23T09:39:02.000Z,0.8
2022-11-23T09:40:19.000Z,1.1
2022-11-23T09:41:35.000Z,0.9
2022-11-23T09:42:51.000Z,0.9
2022-11-23T09:44:07.000Z,1.1
2022-11-23T09:45:24.000Z,0.9
2022-11-23T09:46:40.000Z,1
2022-11-23T09:47:56.000Z,1.1
2022-11-23T09:49:12.000Z,1
2022-11-23T09:50:29.000Z,0.8
2022-11-23T09:51:44.000Z,0.9
2022-11-23T09:53:00.000Z,1
2022-11-23T09:54:16.000Z,0.9
2022-11-23T09:55:33.000Z,0.7
2022-11-23T09:56:49.000Z,0.8
2022-11-23T09:58:05.000Z,0.8
2022-11-23T09:59:21.000Z,0.8
2022-11-23T10:00:37.000Z,0.9
2022-11-23T10:01:54.000Z,1
2022-11-23T10:03:10.000Z,0.9
2022-11-23T10:04:26.000Z,0.8
2022-11-23T10:05:42.000Z,0.8
2022-11-23T10:06:59.000Z,0.9
2022-11-23T10:08:15.000Z,1.1
2022-11-23T10:09:30.000Z,0.8
2022-11-23T10:10:46.000Z,0.7
2022-11-23T10:12:03.000Z,0.9
2022-11-23T10:13:19.000Z,0.8
2022-11-23T10:14:35.000Z,0.8
2022-11-23T10:15:51.000Z,0.9
2022-11-23T10:17:08.000Z,1
2022-11-23T10:18:24.000Z,0.8
2022-11-23T10:19:40.000Z,0.8
2022-11-23T10:20:56.000Z,1
2022-11-23T10:22:12.000Z,0.9
2022-11-23T10:23:29.000Z,1.1
2022-11-23T10:24:45.000Z,1
2022-11-23T10:26:00.000Z,1
2022-11-23T10:27:16.000Z,0.8
2022-11-23T10:28:33.000Z,1.1
2022-11-23T10:29:49.000Z,1
2022-11-23T10:31:05.000Z,0.7
2022-11-23T10:32:21.000Z,0.9
2022-11-23T10:33:38.000Z,0.7
2022-11-23T10:34:54.000Z,1
2022-11-23T10:36:10.000Z,1
2022-11-23T10:37:26.000Z,1.2
2022-11-23T10:38:43.000Z,1.1
2022-11-23T10:39:59.000Z,0.9
2022-11-23T10:41:15.000Z,0.9
2022-11-23T10:42:30.000Z,0.8
2022-11-23T10:43:46.000Z,1
2022-11-23T10:45:03.000Z,0.9
2022-11-23T10:46:19.000Z,0.7
2022-11-23T10:47:35.000Z,0.8
2022-11-23T10:48:51.000Z,1.1
2022-11-23T10:50:08.000Z,0.9
2022-11-23T10:51:24.000Z,0.9
2022-11-23T10:52:40.000Z,1
2022-11-23T10:53:56.000Z,0.9
2022-11-23T10:55:13.000Z,0.9
2022-11-23T10:56:29.000Z,0.8
2022-11-23T10:57:45.000Z,0.7
2022-11-23T10:59:00.000Z,1
2022-11-23T11:00:17.000Z,0.7
2022-11-23T11:01:33.000Z,0.9
2022-11-23T11:02:49.000Z,0.9
2022-11-23T11:04:05.000Z,1
2022-11-23T11:05:21.000Z,0.9
2022-11-23T11:06:38.000Z,0.9
2022-11-23T11:07:54.000Z,0.9
2022-11-23T11:09:10.000Z,0.7
2022-11-23T11:10:26.000Z,1.1
2022-11-23T11:11:43.000Z,1
2022-11-23T11:12:59.000Z,0.9
2022-11-23T11:14:14.000Z,0.8
2022-11-23T11:15:30.000Z,1
2022-11-23T11:16:47.000Z,0.9
2022-11-23T11:18:03.000Z,0.9
2022-11-23T11:19:19.000Z,1
2022-11-23T11:20:35.000Z,1
2022-11-23T11:21:52.000Z,1.2
2022-11-23T11:24:24.000Z,1
2022-11-23T11:25:40.000Z,1.2
2022-11-23T11:26:56.000Z,1.1
2022-11-23T11:28:13.000Z,0.9
2022-11-23T11:29:29.000Z,0.8
2022-11-23T11:30:44.000Z,1.1
2022-11-23T11:32:00.000Z,1.1
2022-11-23T11:33:17.000Z,1
2022-11-23T11:34:33.000Z,0.9
2022-11-23T11:37:05.000Z,1.2
2022-11-23T11:38:22.000Z,1.3
2022-11-23T11:39:38.000Z,1.1
2022-11-23T11:40:54.000Z,1
2022-11-23T11:42:10.000Z,0.9
2022-11-23T11:43:27.000Z,1.4
2022-11-23T11:44:43.000Z,1.1
2022-11-23T11:45:59.000Z,1
2022-11-23T11:47:14.000Z,1
2022-11-23T11:48:30.000Z,1.1
2022-11-23T11:49:47.000Z,0.9
2022-11-23T11:51:03.000Z,1.1
2022-11-23T11:52:19.000Z,1
2022-11-23T11:53:35.000Z,1.9
2022-11-23T11:54:52.000Z,1.2
2022-11-23T11:56:08.000Z,1.2
2022-11-23T11:57:24.000Z,1.3
2022-11-23T11:58:40.000Z,0.9
2022-11-23T11:59:57.000Z,1.1
2022-11-23T12:02:29.000Z,1.2
2022-11-23T12:03:44.000Z,1.3
2022-11-23T12:05:01.000Z,1.1
2022-11-23T12:06:17.000Z,1.1
2022-11-23T12:07:33.000Z,1.3
2022-11-23T12:08:49.000Z,0.9
2022-11-23T12:10:05.000Z,0.9
2022-11-23T12:12:38.000Z,0.9
2022-11-23T12:15:10.000Z,1
2022-11-23T12:16:26.000Z,1.2
2022-11-23T12:17:41.000Z,1.1
2022-11-23T12:18:57.000Z,0.8
2022-11-23T12:20:13.000Z,1
2022-11-23T12:21:30.000Z,1.1
2022-11-23T12:24:02.000Z,1.1
2022-11-23T12:25:18.000Z,1.2
2022-11-23T12:26:35.000Z,1.3
2022-11-23T12:27:51.000Z,1.1
2022-11-23T12:29:07.000Z,1
2022-11-23T12:30:23.000Z,0.8
2022-11-23T12:31:39.000Z,0.8
2022-11-23T12:32:56.000Z,1
2022-11-23T12:34:12.000Z,1
2022-11-23T12:35:28.000Z,1.3
2022-11-23T12:36:43.000Z,0.8
2022-11-23T12:38:00.000Z,0.9
2022-11-23T12:39:16.000Z,0.8
2022-11-23T12:40:32.000Z,1
2022-11-23T12:41:48.000Z,0.8
2022-11-23T12:43:05.000Z,1
2022-11-23T12:44:20.000Z,1.1
2022-11-23T12:45:35.000Z,0.7
2022-11-23T12:46:51.000Z,1.1
2022-11-23T12:48:08.000Z,1
2022-11-23T12:49:24.000Z,0.9
2022-11-23T12:50:40.000Z,1.1
2022-11-23T12:53:13.000Z,1.3
2022-11-23T12:54:29.000Z,1.2
2022-11-23T12:55:45.000Z,0.9
2022-11-23T12:57:01.000Z,0.8
2022-11-23T12:59:34.000Z,0.9
2022-11-23T13:00:49.000Z,1
2022-11-23T13:02:04.000Z,1
2022-11-23T13:03:20.000Z,1
2022-11-23T13:05:53.000Z,1.1
2022-11-23T13:07:09.000Z,1
2022-11-23T13:08:25.000Z,1.1
2022-11-23T13:09:42.000Z,0.9
2022-11-23T13:10:58.000Z,0.9
2022-11-23T13:12:14.000Z,1.1
2022-11-23T13:13:30.000Z,0.7
2022-11-23T13:14:47.000Z,0.7
2022-11-23T13:16:03.000Z,0.8
2022-11-23T13:17:19.000Z,0.8
2022-11-23T13:18:35.000Z,0.8
2022-11-23T13:19:50.000Z,1
2022-11-23T13:21:07.000Z,0.8
2022-11-23T13:22:23.000Z,0.9
2022-11-23T13:23:39.000Z,1.1
2022-11-23T13:24:55.000Z,0.9
2022-11-23T13:26:12.000Z,1
2022-11-23T13:27:28.000Z,0.8
2022-11-23T13:28:43.000Z,0.8
2022-11-23T13:31:15.000Z,0.9
2022-11-23T13:32:31.000Z,1
2022-11-23T13:33:47.000Z,0.8
2022-11-23T13:35:03.000Z,0.7
2022-11-23T13:36:20.000Z,0.8
2022-11-23T13:37:36.000Z,0.6
2022-11-23T13:38:52.000Z,0.9
2022-11-23T13:40:08.000Z,0.9
2022-11-23T13:41:25.000Z,1
2022-11-23T13:42:41.000Z,0.8
2022-11-23T13:43:57.000Z,0.7
2022-11-23T13:45:13.000Z,1.1
2022-11-23T13:46:29.000Z,1
2022-11-23T13:47:45.000Z,0.9
2022-11-23T13:49:01.000Z,1.2
2022-11-23T13:50:17.000Z,1.4
2022-11-23T13:51:33.000Z,1
2022-11-23T13:52:50.000Z,1
2022-11-23T13:54:06.000Z,1
2022-11-23T13:56:38.000Z,1
2022-11-23T13:57:55.000Z,1
2022-11-23T13:59:11.000Z,1.1
2022-11-23T14:00:27.000Z,0.9
2022-11-23T14:01:43.000Z,1.2
2022-11-23T14:02:59.000Z,1.4
2022-11-23T14:04:15.000Z,1.1
2022-11-23T14:05:30.000Z,1.2
2022-11-23T14:06:45.000Z,1
2022-11-23T14:08:01.000Z,1
2022-11-23T14:09:17.000Z,0.9
2022-11-23T14:10:33.000Z,1.1
2022-11-23T14:11:49.000Z,1.2
2022-11-23T14:13:05.000Z,1
2022-11-23T14:14:22.000Z,1.1
2022-11-23T14:15:38.000Z,1.5
2022-11-23T14:18:10.000Z,1.1
2022-11-23T14:19:27.000Z,0.9
2022-11-23T14:20:43.000Z,1
2022-11-23T14:21:59.000Z,1.2
2022-11-23T14:23:15.000Z,0.7
2022-11-23T14:24:31.000Z,1
2022-11-23T14:25:47.000Z,1.1
2022-11-23T14:27:03.000Z,1
2022-11-23T14:28:19.000Z,1
2022-11-23T14:29:36.000Z,1
2022-11-23T14:30:52.000Z,1.1
2022-11-23T14:32:08.000Z,1.1
2022-11-23T14:34:40.000Z,1
2022-11-23T14:35:56.000Z,1.1
2022-11-23T14:37:11.000Z,0.9
2022-11-23T14:38:27.000Z,1.2
2022-11-23T14:39:42.000Z,0.9
2022-11-23T14:40:58.000Z,1
2022-11-23T14:42:14.000Z,0.9
2022-11-23T14:43:30.000Z,0.9
2022-11-23T14:44:46.000Z,1.1
2022-11-23T14:46:03.000Z,1.1
2022-11-23T14:47:19.000Z,1.1
2022-11-23T14:48:35.000Z,1.4
2022-11-23T14:49:51.000Z,1.1
2022-11-23T14:51:08.000Z,1.2
2022-11-23T14:52:24.000Z,0.9
2022-11-23T14:53:40.000Z,1
2022-11-23T14:54:56.000Z,1.3
2022-11-23T14:56:13.000Z,1.3
2022-11-23T14:57:29.000Z,1.2
2022-11-23T14:58:45.000Z,1.2
2022-11-23T15:00:01.000Z,1
2022-11-23T15:01:16.000Z,1.1
2022-11-23T15:02:33.000Z,1.1
2022-11-23T15:03:49.000Z,1
2022-11-23T15:05:05.000Z,0.9
2022-11-23T15:06:20.000Z,1
2022-11-23T15:07:36.000Z,0.9
2022-11-23T15:08:52.000Z,1
2022-11-23T15:10:08.000Z,1
2022-11-23T15:11:24.000Z,1
2022-11-23T15:12:41.000Z,1.2
2022-11-23T15:13:57.000Z,1
2022-11-23T15:15:12.000Z,1
2022-11-23T15:16:27.000Z,1.1
2022-11-23T15:17:44.000Z,1
2022-11-23T15:19:00.000Z,1.6
2022-11-23T15:20:16.000Z,1.1
2022-11-23T15:21:32.000Z,1.2
2022-11-23T15:22:49.000Z,1.2
2022-11-23T15:24:05.000Z,1.1
2022-11-23T15:25:21.000Z,1.2
2022-11-23T15:26:37.000Z,1
2022-11-23T15:27:53.000Z,1
2022-11-23T15:29:09.000Z,1.1
2022-11-23T15:30:25.000Z,1.5
2022-11-23T15:31:41.000Z,1.2
2022-11-23T15:32:57.000Z,1.2
2022-11-23T15:34:14.000Z,1.2
2022-11-23T15:35:30.000Z,1.3
2022-11-23T15:36:46.000Z,1.2
2022-11-23T15:38:02.000Z,1.1
2022-11-23T15:39:19.000Z,1.4
2022-11-23T15:40:35.000Z,1.2
2022-11-23T15:41:50.000Z,1.2
2022-11-23T15:43:05.000Z,1.1
2022-11-23T15:44:21.000Z,1.2
2022-11-23T15:45:36.000Z,1.1
2022-11-23T15:46:52.000Z,1.2
2022-11-23T15:48:08.000Z,1.1
2022-11-23T15:49:25.000Z,0.9
2022-11-23T15:50:41.000Z,1.2
2022-11-23T15:51:57.000Z,1.3
2022-11-23T15:53:13.000Z,1.1
2022-11-23T15:54:29.000Z,1.3
2022-11-23T15:55:46.000Z,1.4
2022-11-23T15:57:02.000Z,1
2022-11-23T15:58:18.000Z,1.1
2022-11-23T15:59:34.000Z,1.3
2022-11-23T16:00:51.000Z,1.3
2022-11-23T16:02:06.000Z,1.1
2022-11-23T16:03:22.000Z,1.2
2022-11-23T16:04:38.000Z,1.1
2022-11-23T16:05:55.000Z,1.1
2022-11-23T16:07:11.000Z,1.1
2022-11-23T16:08:27.000Z,1.3
2022-11-23T16:09:43.000Z,1.1
2022-11-23T16:11:00.000Z,1.2
2022-11-23T16:12:16.000Z,1.2
2022-11-23T16:13:32.000Z,1.1
2022-11-23T16:14:48.000Z,1.4
2022-11-23T16:16:04.000Z,1.3
2022-11-23T16:17:21.000Z,1.2
2022-11-23T16:18:36.000Z,0.9
2022-11-23T16:19:51.000Z,1.1
2022-11-23T16:21:07.000Z,1
2022-11-23T16:22:22.000Z,1.3
2022-11-23T16:23:38.000Z,1
2022-11-23T16:24:54.000Z,1.2
2022-11-23T16:26:10.000Z,1
2022-11-23T16:27:27.000Z,1.1
2022-11-23T16:28:43.000Z,0.8
2022-11-23T16:29:59.000Z,1.2
2022-11-23T16:32:32.000Z,1
2022-11-23T16:33:48.000Z,1.2
2022-11-23T16:35:04.000Z,0.9
2022-11-23T16:36:20.000Z,1.1
2022-11-23T16:37:37.000Z,1
2022-11-23T16:38:52.000Z,1
2022-11-23T16:40:08.000Z,1
2022-11-23T16:41:24.000Z,1.4
2022-11-23T16:42:41.000Z,1.3
2022-11-23T16:43:57.000Z,1.2
2022-11-23T16:45:13.000Z,1.1
2022-11-23T16:46:29.000Z,1.2
2022-11-23T16:47:45.000Z,1
2022-11-23T16:49:02.000Z,1.1
2022-11-23T16:50:18.000Z,0.9
2022-11-23T16:51:34.000Z,1.3
2022-11-23T16:54:07.000Z,1.2
2022-11-23T16:55:22.000Z,1
2022-11-23T16:56:38.000Z,1.2
2022-11-23T16:57:54.000Z,1.2
2022-11-23T16:59:11.000Z,1
2022-11-23T17:00:27.000Z,1.1
2022-11-23T17:01:43.000Z,1.1
2022-11-23T17:02:59.000Z,1
2022-11-23T17:04:16.000Z,1.2
2022-11-23T17:05:32.000Z,1.2
2022-11-23T17:06:48.000Z,1
2022-11-23T17:08:04.000Z,0.9
2022-11-23T17:09:20.000Z,1
2022-11-23T17:10:37.000Z,1.1
2022-11-23T17:11:52.000Z,1.2
2022-11-23T17:13:08.000Z,1.1
2022-11-23T17:14:24.000Z,1.1
2022-11-23T17:15:41.000Z,1.2
2022-11-23T17:16:57.000Z,1
2022-11-23T17:18:13.000Z,1
2022-11-23T17:19:29.000Z,1.1
2022-11-23T17:20:46.000Z,1
2022-11-23T17:22:02.000Z,1.3
2022-11-23T17:23:18.000Z,1.3
2022-11-23T17:24:34.000Z,1.3
2022-11-23T17:25:51.000Z,1.1
2022-11-23T17:27:07.000Z,1
2022-11-23T17:28:22.000Z,1.3
2022-11-23T17:29:38.000Z,1.3
2022-11-23T17:30:54.000Z,1
2022-11-23T17:32:11.000Z,1.4
2022-11-23T17:33:27.000Z,0.9
2022-11-23T17:34:43.000Z,1.2
2022-11-23T17:35:59.000Z,1.1
2022-11-23T17:37:16.000Z,1.1
2022-11-23T17:38:32.000Z,1.1
2022-11-23T17:39:48.000Z,1.2
2022-11-23T17:41:04.000Z,1.1
2022-11-23T17:42:21.000Z,1.1
2022-11-23T17:43:37.000Z,1.4
2022-11-23T17:44:52.000Z,0.9
2022-11-23T17:46:08.000Z,0.9
2022-11-23T17:47:25.000Z,1
2022-11-23T17:48:41.000Z,1.1
2022-11-23T17:49:57.000Z,1
2022-11-23T17:51:13.000Z,1.1
2022-11-23T17:52:29.000Z,1
2022-11-23T17:53:45.000Z,1
2022-11-23T17:55:00.000Z,1.2
2022-11-23T17:56:16.000Z,0.8
2022-11-23T17:57:32.000Z,1
2022-11-23T17:58:49.000Z,1
2022-11-23T18:00:04.000Z,1.2
2022-11-23T18:01:19.000Z,1.2
2022-11-23T18:02:35.000Z,1.1
2022-11-23T18:03:52.000Z,1.1
2022-11-23T18:05:08.000Z,1.1
2022-11-23T18:06:24.000Z,1
2022-11-23T18:07:40.000Z,0.8
2022-11-23T18:08:57.000Z,0.8
2022-11-23T18:10:13.000Z,0.9
2022-11-23T18:11:29.000Z,1.1
2022-11-23T18:12:45.000Z,1.1
2022-11-23T18:14:02.000Z,5
2022-11-23T18:15:18.000Z,16.6
2022-11-23T18:16:34.000Z,9.5